Jim Falls, WI (54748)

1:33 PM CDT on September 21, 2014 (GMT -0500)
Jim Falls 3W | Change Station
CLOSE
Current Station
Personal Weather Station
Location: Jim Falls, WI
Elevation: 1061 ft
Nearby Weather Stations

Elev 1061 ft 45.08 °N, 91.33 °W | Updated 1 second ago

Partly Cloudy
Partly Cloudy
61.9 °F
Feels Like 61.9 °F
N
0.0
Wind Variable Wind from North
Gusts 13.0 mph

Today
High -- | Low -- °F
--% Chance of Precip.
Yesterday
High -- | Low -- °F
Precip. -- in
6:50 AM 7:04 PM
Waning Crescent, 6% visible
Pressure 30.07 in
Visibility 10.0 miles
Clouds Mostly Cloudy 4100 ft
Dew Point 50 °F
Humidity 65%
Rainfall 0.04 in
Snow Depth Not available.
UV 3 out of 12
Pollen 2.10 out of 12
Air Quality Not available.
Flu Activity Not available.
METAR KEAU 211756Z 34011G19KT 10SM BKN041 17/07 A3007 RMK AO2 SLP183 60000 T01670072 10172 20117 51017

More Conditions Fewer Conditions

Pressure 30.07 in
Visibility 10.0 miles
Clouds Mostly Cloudy 4100 ft
Dew Point 50 °F
Humidity 65%
Rainfall 0.04 in
Snow Depth Not available.
UV 3 out of 12
Pollen 2.10 out of 12
Air Quality Not available.
Flu Activity Not available.
METAR KEAU 211756Z 34011G19KT 10SM BKN041 17/07 A3007 RMK AO2 SLP183 60000 T01670072 10172 20117 51017

More Conditions Fewer Conditions

10-Day Weather Forecast

Almanac

Astronomy

Sep. 21, 2014 Rise Set
Actual Time 6:50 AM CDT 7:04 PM CDT
Civil Twilight 6:21 AM CDT 7:33 PM CDT
Nautical Twilight 5:46 AM CDT 8:08 PM CDT
Astronomical Twilight 5:11 AM CDT 8:43 PM CDT
Moon 4:19 AM CDT 5:44 PM CDT
Length of Visible Light 13h 12m
Length of Day
12h 13m
Tomorrow will be 3m 6s shorter.
Waning Crescent, 6% of the Moon is Illuminated
Today
Waning Crescent
Sep 24
New
Oct 1
First Quarter
Oct 8
Full
Oct 15
Last Quarter

Today's Extremes

State Highs State Lows

Community

WunderPhotos

Upload Photos

1,755,212 photos uploaded!

WunderBlogs® & News

Nearby

Snow Depth

Station Depth Elevation
No new snow has been reported.

Earthquake Activity

City Distance Mag. Time & Date
No recent earthquake activity has been reported nearby.
Minimum magnitude displayed is 2.5.

Coastal Water Temperatures

Place Temperature
No Stations Reporting

Nearby Weather Stations